Barnum, Minnesota
Current Conditions -  °F | °C
As of 10:14 AM on Thursday 29 Jan 2015 (Local Time) from KMZH Reporting Station
Overcast Overcast  
Wind Chill: 18°   Ceiling: 1700
Heat Index: 28°   Visibility: 10mi
Dew Point: 21°   Wind: 12mph
Humidity: 74%   Direction: 310°NW
Pressure: 30.15"   Gusts: 24mph
Location:  46.5°N, 92.69°W
Report Text: KMZH 291614Z AUTO 31010G21KT 10SM OVC017 M02/M06 A3015 RMK AO2
Loading
Personal Weather Stations






























Interactive Weather Map New forecast layout! Learn more

10-Day Weather Forecast

Advertisements
Track Severe Weather on mobile